sensor_id;sensor_type;location;lat;lon;timestamp;P1;durP1;ratioP1;P2;durP2;ratioP2
8857;SDS011;4465;50.904;4.696;2023-09-07T00:01:05;9.20;;;5.50;;
8857;SDS011;4465;50.904;4.696;2023-09-07T00:03:34;10.45;;;5.85;;
8857;SDS011;4465;50.904;4.696;2023-09-07T00:06:00;9.40;;;4.93;;
8857;SDS011;4465;50.904;4.696;2023-09-07T00:08:33;11.23;;;5.80;;
8857;SDS011;4465;50.904;4.696;2023-09-07T00:11:04;8.15;;;5.03;;
8857;SDS011;4465;50.904;4.696;2023-09-07T00:13:31;10.52;;;5.35;;
8857;SDS011;4465;50.904;4.696;2023-09-07T00:15:58;12.45;;;4.95;;
8857;SDS011;4465;50.904;4.696;2023-09-07T00:18:25;9.57;;;5.07;;
8857;SDS011;4465;50.904;4.696;2023-09-07T00:20:54;14.00;;;5.15;;
8857;SDS011;4465;50.904;4.696;2023-09-07T00:23:20;11.57;;;5.93;;
8857;SDS011;4465;50.904;4.696;2023-09-07T00:25:46;8.18;;;5.15;;
8857;SDS011;4465;50.904;4.696;2023-09-07T00:28:14;6.85;;;4.82;;
8857;SDS011;4465;50.904;4.696;2023-09-07T00:30:40;9.95;;;5.32;;
8857;SDS011;4465;50.904;4.696;2023-09-07T00:33:07;9.95;;;6.05;;
8857;SDS011;4465;50.904;4.696;2023-09-07T00:35:33;8.82;;;5.47;;
8857;SDS011;4465;50.904;4.696;2023-09-07T00:38:02;9.27;;;6.00;;
8857;SDS011;4465;50.904;4.696;2023-09-07T00:40:30;9.98;;;5.40;;
8857;SDS011;4465;50.904;4.696;2023-09-07T00:42:56;9.82;;;5.50;;
8857;SDS011;4465;50.904;4.696;2023-09-07T00:45:21;12.00;;;5.35;;
8857;SDS011;4465;50.904;4.696;2023-09-07T00:47:49;12.30;;;5.57;;
8857;SDS011;4465;50.904;4.696;2023-09-07T00:50:15;11.90;;;5.25;;
8857;SDS011;4465;50.904;4.696;2023-09-07T00:52:42;14.87;;;5.53;;
8857;SDS011;4465;50.904;4.696;2023-09-07T00:55:08;12.13;;;5.18;;
8857;SDS011;4465;50.904;4.696;2023-09-07T00:57:37;9.32;;;5.60;;
8857;SDS011;4465;50.904;4.696;2023-09-07T01:00:05;9.48;;;5.25;;
8857;SDS011;4465;50.904;4.696;2023-09-07T01:02:35;9.80;;;5.28;;
8857;SDS011;4465;50.904;4.696;2023-09-07T01:05:01;9.20;;;5.50;;
8857;SDS011;4465;50.904;4.696;2023-09-07T01:07:32;8.73;;;5.07;;
8857;SDS011;4465;50.904;4.696;2023-09-07T01:10:05;11.93;;;5.90;;
8857;SDS011;4465;50.904;4.696;2023-09-07T01:12:34;11.43;;;5.85;;
8857;SDS011;4465;50.904;4.696;2023-09-07T01:15:00;9.93;;;5.82;;
8857;SDS011;4465;50.904;4.696;2023-09-07T01:17:26;9.00;;;5.10;;
8857;SDS011;4465;50.904;4.696;2023-09-07T01:19:55;12.10;;;5.65;;
8857;SDS011;4465;50.904;4.696;2023-09-07T01:22:24;9.48;;;5.43;;
8857;SDS011;4465;50.904;4.696;2023-09-07T01:24:51;10.07;;;5.47;;
8857;SDS011;4465;50.904;4.696;2023-09-07T01:27:18;8.90;;;5.82;;
8857;SDS011;4465;50.904;4.696;2023-09-07T01:29:44;10.60;;;5.53;;
8857;SDS011;4465;50.904;4.696;2023-09-07T01:32:10;12.10;;;5.70;;
8857;SDS011;4465;50.904;4.696;2023-09-07T01:34:41;9.98;;;5.90;;
8857;SDS011;4465;50.904;4.696;2023-09-07T01:37:07;11.35;;;5.22;;
8857;SDS011;4465;50.904;4.696;2023-09-07T01:39:35;11.68;;;5.57;;
8857;SDS011;4465;50.904;4.696;2023-09-07T01:42:02;11.98;;;6.00;;
8857;SDS011;4465;50.904;4.696;2023-09-07T01:44:28;9.93;;;5.60;;
8857;SDS011;4465;50.904;4.696;2023-09-07T01:46:55;9.40;;;5.70;;
8857;SDS011;4465;50.904;4.696;2023-09-07T01:49:20;9.18;;;5.45;;
8857;SDS011;4465;50.904;4.696;2023-09-07T01:51:50;10.93;;;5.38;;
8857;SDS011;4465;50.904;4.696;2023-09-07T01:54:18;11.68;;;5.50;;
8857;SDS011;4465;50.904;4.696;2023-09-07T01:59:11;10.02;;;5.63;;
8857;SDS011;4465;50.904;4.696;2023-09-07T02:01:37;9.88;;;5.80;;
8857;SDS011;4465;50.904;4.696;2023-09-07T02:04:09;11.30;;;5.75;;
8857;SDS011;4465;50.904;4.696;2023-09-07T02:06:34;9.48;;;5.57;;
8857;SDS011;4465;50.904;4.696;2023-09-07T02:09:02;11.20;;;5.93;;
8857;SDS011;4465;50.904;4.696;2023-09-07T02:11:29;11.02;;;5.68;;
8857;SDS011;4465;50.904;4.696;2023-09-07T02:13:55;9.80;;;5.50;;
8857;SDS011;4465;50.904;4.696;2023-09-07T02:16:21;14.07;;;6.00;;
8857;SDS011;4465;50.904;4.696;2023-09-07T02:18:48;11.43;;;5.10;;
8857;SDS011;4465;50.904;4.696;2023-09-07T02:21:17;11.40;;;6.00;;
8857;SDS011;4465;50.904;4.696;2023-09-07T02:23:46;9.60;;;5.97;;
8857;SDS011;4465;50.904;4.696;2023-09-07T02:26:14;11.13;;;6.13;;
8857;SDS011;4465;50.904;4.696;2023-09-07T02:28:40;9.30;;;5.25;;
8857;SDS011;4465;50.904;4.696;2023-09-07T02:31:06;10.93;;;5.50;;
8857;SDS011;4465;50.904;4.696;2023-09-07T02:33:33;10.48;;;6.38;;
8857;SDS011;4465;50.904;4.696;2023-09-07T02:36:00;11.15;;;5.50;;
8857;SDS011;4465;50.904;4.696;2023-09-07T02:38:26;9.98;;;6.30;;
8857;SDS011;4465;50.904;4.696;2023-09-07T02:40:52;9.52;;;5.97;;
8857;SDS011;4465;50.904;4.696;2023-09-07T02:43:20;10.82;;;6.15;;
8857;SDS011;4465;50.904;4.696;2023-09-07T02:45:48;10.55;;;5.90;;
8857;SDS011;4465;50.904;4.696;2023-09-07T02:48:17;11.77;;;5.68;;
8857;SDS011;4465;50.904;4.696;2023-09-07T02:50:43;12.35;;;6.63;;
8857;SDS011;4465;50.904;4.696;2023-09-07T02:53:14;11.07;;;6.30;;
8857;SDS011;4465;50.904;4.696;2023-09-07T02:55:39;13.52;;;6.38;;
8857;SDS011;4465;50.904;4.696;2023-09-07T02:58:05;9.68;;;5.68;;
8857;SDS011;4465;50.904;4.696;2023-09-07T03:00:31;9.52;;;6.03;;
8857;SDS011;4465;50.904;4.696;2023-09-07T03:02:57;11.32;;;6.03;;
8857;SDS011;4465;50.904;4.696;2023-09-07T03:05:26;11.20;;;5.85;;
8857;SDS011;4465;50.904;4.696;2023-09-07T03:07:53;10.68;;;6.47;;
8857;SDS011;4465;50.904;4.696;2023-09-07T03:10:19;10.70;;;6.32;;
8857;SDS011;4465;50.904;4.696;2023-09-07T03:12:45;11.35;;;5.78;;
8857;SDS011;4465;50.904;4.696;2023-09-07T03:15:13;10.98;;;6.20;;
8857;SDS011;4465;50.904;4.696;2023-09-07T03:17:40;10.90;;;6.22;;
8857;SDS011;4465;50.904;4.696;2023-09-07T03:20:06;10.18;;;5.30;;
8857;SDS011;4465;50.904;4.696;2023-09-07T03:22:45;9.70;;;5.93;;
8857;SDS011;4465;50.904;4.696;2023-09-07T03:25:11;11.32;;;6.32;;
8857;SDS011;4465;50.904;4.696;2023-09-07T03:27:38;11.93;;;6.13;;
8857;SDS011;4465;50.904;4.696;2023-09-07T03:30:04;12.00;;;6.15;;
8857;SDS011;4465;50.904;4.696;2023-09-07T03:32:33;10.10;;;6.30;;
8857;SDS011;4465;50.904;4.696;2023-09-07T03:34:59;11.68;;;6.45;;
8857;SDS011;4465;50.904;4.696;2023-09-07T03:37:29;13.63;;;7.38;;
8857;SDS011;4465;50.904;4.696;2023-09-07T03:39:57;13.75;;;7.45;;
8857;SDS011;4465;50.904;4.696;2023-09-07T03:42:22;14.90;;;6.85;;
8857;SDS011;4465;50.904;4.696;2023-09-07T03:44:48;12.20;;;7.03;;
8857;SDS011;4465;50.904;4.696;2023-09-07T03:47:17;12.98;;;6.70;;
8857;SDS011;4465;50.904;4.696;2023-09-07T03:49:43;11.48;;;6.80;;
8857;SDS011;4465;50.904;4.696;2023-09-07T03:52:09;11.15;;;5.95;;
8857;SDS011;4465;50.904;4.696;2023-09-07T03:54:37;11.38;;;6.63;;
8857;SDS011;4465;50.904;4.696;2023-09-07T03:57:05;13.27;;;7.68;;
8857;SDS011;4465;50.904;4.696;2023-09-07T03:59:31;15.55;;;7.70;;
8857;SDS011;4465;50.904;4.696;2023-09-07T04:01:57;11.45;;;6.50;;
8857;SDS011;4465;50.904;4.696;2023-09-07T04:04:22;11.07;;;6.78;;
8857;SDS011;4465;50.904;4.696;2023-09-07T04:06:48;12.25;;;7.22;;
8857;SDS011;4465;50.904;4.696;2023-09-07T04:09:14;12.48;;;6.50;;
8857;SDS011;4465;50.904;4.696;2023-09-07T04:11:43;16.30;;;5.90;;
8857;SDS011;4465;50.904;4.696;2023-09-07T04:14:09;12.10;;;6.78;;
8857;SDS011;4465;50.904;4.696;2023-09-07T04:16:39;15.13;;;6.93;;
8857;SDS011;4465;50.904;4.696;2023-09-07T04:19:05;11.45;;;5.70;;
8857;SDS011;4465;50.904;4.696;2023-09-07T04:21:35;12.60;;;6.63;;
8857;SDS011;4465;50.904;4.696;2023-09-07T04:24:01;26.80;;;7.15;;
8857;SDS011;4465;50.904;4.696;2023-09-07T04:26:27;13.45;;;6.75;;
8857;SDS011;4465;50.904;4.696;2023-09-07T04:28:54;13.85;;;6.97;;
8857;SDS011;4465;50.904;4.696;2023-09-07T04:31:20;12.70;;;7.15;;
8857;SDS011;4465;50.904;4.696;2023-09-07T04:33:46;12.23;;;6.72;;
8857;SDS011;4465;50.904;4.696;2023-09-07T04:36:13;13.45;;;7.22;;
8857;SDS011;4465;50.904;4.696;2023-09-07T04:38:42;18.35;;;7.60;;
8857;SDS011;4465;50.904;4.696;2023-09-07T04:41:08;14.13;;;7.50;;
8857;SDS011;4465;50.904;4.696;2023-09-07T04:43:35;12.68;;;6.95;;
8857;SDS011;4465;50.904;4.696;2023-09-07T04:46:03;11.93;;;6.63;;
8857;SDS011;4465;50.904;4.696;2023-09-07T04:48:28;13.75;;;8.00;;
8857;SDS011;4465;50.904;4.696;2023-09-07T04:51:04;18.05;;;7.68;;
8857;SDS011;4465;50.904;4.696;2023-09-07T04:53:32;12.98;;;7.47;;
8857;SDS011;4465;50.904;4.696;2023-09-07T04:56:00;12.10;;;6.60;;
8857;SDS011;4465;50.904;4.696;2023-09-07T04:58:27;13.60;;;7.88;;
8857;SDS011;4465;50.904;4.696;2023-09-07T05:00:53;13.32;;;7.20;;
8857;SDS011;4465;50.904;4.696;2023-09-07T05:03:19;13.63;;;6.68;;
8857;SDS011;4465;50.904;4.696;2023-09-07T05:05:50;17.40;;;7.38;;
8857;SDS011;4465;50.904;4.696;2023-09-07T05:08:21;12.88;;;7.70;;
8857;SDS011;4465;50.904;4.696;2023-09-07T05:11:00;18.73;;;7.97;;
8857;SDS011;4465;50.904;4.696;2023-09-07T05:13:27;15.18;;;7.55;;
8857;SDS011;4465;50.904;4.696;2023-09-07T05:15:54;14.45;;;7.43;;
8857;SDS011;4465;50.904;4.696;2023-09-07T05:18:21;19.98;;;7.65;;
8857;SDS011;4465;50.904;4.696;2023-09-07T05:20:48;16.87;;;7.30;;
8857;SDS011;4465;50.904;4.696;2023-09-07T05:23:15;22.27;;;7.78;;
8857;SDS011;4465;50.904;4.696;2023-09-07T05:25:43;16.77;;;8.23;;
8857;SDS011;4465;50.904;4.696;2023-09-07T05:28:21;13.80;;;7.82;;
8857;SDS011;4465;50.904;4.696;2023-09-07T05:30:48;15.48;;;7.53;;
8857;SDS011;4465;50.904;4.696;2023-09-07T05:33:14;15.43;;;7.80;;
8857;SDS011;4465;50.904;4.696;2023-09-07T05:35:42;13.93;;;8.20;;
8857;SDS011;4465;50.904;4.696;2023-09-07T05:38:13;15.15;;;7.43;;
8857;SDS011;4465;50.904;4.696;2023-09-07T05:40:40;16.35;;;7.60;;
8857;SDS011;4465;50.904;4.696;2023-09-07T05:43:07;14.70;;;7.70;;
8857;SDS011;4465;50.904;4.696;2023-09-07T05:45:34;14.82;;;7.75;;
8857;SDS011;4465;50.904;4.696;2023-09-07T05:48:04;14.57;;;7.30;;
8857;SDS011;4465;50.904;4.696;2023-09-07T05:50:34;14.27;;;7.47;;
8857;SDS011;4465;50.904;4.696;2023-09-07T05:53:02;19.88;;;8.20;;
8857;SDS011;4465;50.904;4.696;2023-09-07T05:55:28;17.73;;;8.27;;
8857;SDS011;4465;50.904;4.696;2023-09-07T05:57:57;14.43;;;7.70;;
8857;SDS011;4465;50.904;4.696;2023-09-07T06:00:23;12.93;;;7.88;;
8857;SDS011;4465;50.904;4.696;2023-09-07T06:02:49;13.65;;;7.65;;
8857;SDS011;4465;50.904;4.696;2023-09-07T06:05:16;18.35;;;7.68;;
8857;SDS011;4465;50.904;4.696;2023-09-07T06:07:43;18.95;;;11.68;;
8857;SDS011;4465;50.904;4.696;2023-09-07T06:10:09;12.63;;;7.05;;
8857;SDS011;4465;50.904;4.696;2023-09-07T06:12:35;12.85;;;7.50;;
8857;SDS011;4465;50.904;4.696;2023-09-07T06:15:01;14.25;;;7.35;;
8857;SDS011;4465;50.904;4.696;2023-09-07T06:17:28;13.00;;;7.17;;
8857;SDS011;4465;50.904;4.696;2023-09-07T06:19:56;16.40;;;7.93;;
8857;SDS011;4465;50.904;4.696;2023-09-07T06:22:22;18.05;;;8.30;;
8857;SDS011;4465;50.904;4.696;2023-09-07T06:24:51;16.92;;;9.10;;
8857;SDS011;4465;50.904;4.696;2023-09-07T06:27:19;17.00;;;8.80;;
8857;SDS011;4465;50.904;4.696;2023-09-07T06:29:47;18.95;;;9.18;;
8857;SDS011;4465;50.904;4.696;2023-09-07T06:32:12;18.80;;;9.27;;
8857;SDS011;4465;50.904;4.696;2023-09-07T06:34:38;17.58;;;8.02;;
8857;SDS011;4465;50.904;4.696;2023-09-07T06:37:10;14.80;;;8.35;;
8857;SDS011;4465;50.904;4.696;2023-09-07T06:39:38;13.07;;;7.90;;
8857;SDS011;4465;50.904;4.696;2023-09-07T06:42:08;15.38;;;8.52;;
8857;SDS011;4465;50.904;4.696;2023-09-07T06:44:35;15.90;;;8.55;;
8857;SDS011;4465;50.904;4.696;2023-09-07T06:47:01;14.07;;;8.00;;
8857;SDS011;4465;50.904;4.696;2023-09-07T06:49:27;13.40;;;8.00;;
8857;SDS011;4465;50.904;4.696;2023-09-07T06:51:56;16.33;;;8.32;;
8857;SDS011;4465;50.904;4.696;2023-09-07T06:54:22;13.38;;;7.65;;
8857;SDS011;4465;50.904;4.696;2023-09-07T06:56:48;11.40;;;6.70;;
8857;SDS011;4465;50.904;4.696;2023-09-07T06:59:14;10.95;;;6.72;;
8857;SDS011;4465;50.904;4.696;2023-09-07T07:01:40;11.45;;;6.75;;
8857;SDS011;4465;50.904;4.696;2023-09-07T07:04:06;11.07;;;6.55;;
8857;SDS011;4465;50.904;4.696;2023-09-07T07:06:33;13.18;;;6.60;;
8857;SDS011;4465;50.904;4.696;2023-09-07T07:08:59;12.10;;;6.65;;
8857;SDS011;4465;50.904;4.696;2023-09-07T07:11:25;9.93;;;6.25;;
8857;SDS011;4465;50.904;4.696;2023-09-07T07:13:53;12.07;;;6.82;;
8857;SDS011;4465;50.904;4.696;2023-09-07T07:16:21;9.82;;;6.25;;
8857;SDS011;4465;50.904;4.696;2023-09-07T07:18:47;10.38;;;5.45;;
8857;SDS011;4465;50.904;4.696;2023-09-07T07:21:15;9.38;;;5.63;;
8857;SDS011;4465;50.904;4.696;2023-09-07T07:23:41;10.10;;;5.70;;
8857;SDS011;4465;50.904;4.696;2023-09-07T07:26:09;10.00;;;5.80;;
8857;SDS011;4465;50.904;4.696;2023-09-07T07:28:35;8.57;;;5.43;;
8857;SDS011;4465;50.904;4.696;2023-09-07T07:31:07;10.55;;;5.63;;
8857;SDS011;4465;50.904;4.696;2023-09-07T07:33:34;12.32;;;5.75;;
8857;SDS011;4465;50.904;4.696;2023-09-07T07:36:03;12.10;;;5.90;;
8857;SDS011;4465;50.904;4.696;2023-09-07T07:38:30;8.85;;;5.32;;
8857;SDS011;4465;50.904;4.696;2023-09-07T07:40:58;9.32;;;5.53;;
8857;SDS011;4465;50.904;4.696;2023-09-07T07:43:24;8.57;;;5.20;;
8857;SDS011;4465;50.904;4.696;2023-09-07T07:45:51;8.38;;;5.10;;
8857;SDS011;4465;50.904;4.696;2023-09-07T07:50:45;8.73;;;4.95;;
8857;SDS011;4465;50.904;4.696;2023-09-07T07:53:11;9.48;;;5.40;;
8857;SDS011;4465;50.904;4.696;2023-09-07T07:55:37;11.02;;;5.70;;
8857;SDS011;4465;50.904;4.696;2023-09-07T07:58:07;8.32;;;5.40;;
8857;SDS011;4465;50.904;4.696;2023-09-07T08:00:34;9.23;;;5.20;;
8857;SDS011;4465;50.904;4.696;2023-09-07T08:03:04;9.18;;;5.20;;
8857;SDS011;4465;50.904;4.696;2023-09-07T08:05:34;11.10;;;5.45;;
8857;SDS011;4465;50.904;4.696;2023-09-07T08:08:03;12.43;;;5.00;;
8857;SDS011;4465;50.904;4.696;2023-09-07T08:10:29;8.88;;;4.78;;
8857;SDS011;4465;50.904;4.696;2023-09-07T08:12:58;12.20;;;4.85;;
8857;SDS011;4465;50.904;4.696;2023-09-07T08:15:24;9.02;;;4.97;;
8857;SDS011;4465;50.904;4.696;2023-09-07T08:17:51;8.32;;;4.68;;
8857;SDS011;4465;50.904;4.696;2023-09-07T08:20:17;7.90;;;4.68;;
8857;SDS011;4465;50.904;4.696;2023-09-07T08:22:43;8.45;;;4.65;;
8857;SDS011;4465;50.904;4.696;2023-09-07T08:27:40;9.63;;;4.65;;
8857;SDS011;4465;50.904;4.696;2023-09-07T08:30:14;8.75;;;4.30;;
8857;SDS011;4465;50.904;4.696;2023-09-07T08:32:42;9.93;;;4.20;;
8857;SDS011;4465;50.904;4.696;2023-09-07T08:35:13;7.10;;;4.00;;
8857;SDS011;4465;50.904;4.696;2023-09-07T08:37:40;6.43;;;3.75;;
8857;SDS011;4465;50.904;4.696;2023-09-07T08:40:06;7.18;;;4.22;;
8857;SDS011;4465;50.904;4.696;2023-09-07T08:42:35;5.88;;;3.72;;
8857;SDS011;4465;50.904;4.696;2023-09-07T08:45:02;6.68;;;4.22;;
8857;SDS011;4465;50.904;4.696;2023-09-07T08:47:33;6.00;;;3.72;;
8857;SDS011;4465;50.904;4.696;2023-09-07T08:50:00;7.35;;;4.25;;
8857;SDS011;4465;50.904;4.696;2023-09-07T08:52:27;9.68;;;4.80;;
8857;SDS011;4465;50.904;4.696;2023-09-07T08:54:53;5.97;;;3.70;;
8857;SDS011;4465;50.904;4.696;2023-09-07T08:57:26;6.10;;;3.90;;
8857;SDS011;4465;50.904;4.696;2023-09-07T08:59:54;6.65;;;4.10;;
8857;SDS011;4465;50.904;4.696;2023-09-07T09:02:20;9.70;;;3.92;;
8857;SDS011;4465;50.904;4.696;2023-09-07T09:04:46;7.78;;;4.03;;
8857;SDS011;4465;50.904;4.696;2023-09-07T09:07:12;4.90;;;3.50;;
8857;SDS011;4465;50.904;4.696;2023-09-07T09:09:41;8.10;;;4.00;;
8857;SDS011;4465;50.904;4.696;2023-09-07T09:12:10;7.38;;;3.42;;
8857;SDS011;4465;50.904;4.696;2023-09-07T09:14:42;6.18;;;3.60;;
8857;SDS011;4465;50.904;4.696;2023-09-07T09:17:12;7.53;;;3.80;;
8857;SDS011;4465;50.904;4.696;2023-09-07T09:22:05;8.05;;;3.30;;
8857;SDS011;4465;50.904;4.696;2023-09-07T09:24:32;5.78;;;3.55;;
8857;SDS011;4465;50.904;4.696;2023-09-07T09:27:03;8.07;;;3.55;;
8857;SDS011;4465;50.904;4.696;2023-09-07T09:29:35;5.40;;;3.53;;
8857;SDS011;4465;50.904;4.696;2023-09-07T09:32:04;4.95;;;3.35;;
8857;SDS011;4465;50.904;4.696;2023-09-07T09:34:35;8.10;;;3.63;;
8857;SDS011;4465;50.904;4.696;2023-09-07T09:37:03;4.90;;;3.17;;
8857;SDS011;4465;50.904;4.696;2023-09-07T09:39:29;5.45;;;3.00;;
8857;SDS011;4465;50.904;4.696;2023-09-07T09:41:57;6.32;;;3.67;;
8857;SDS011;4465;50.904;4.696;2023-09-07T09:44:26;4.38;;;3.00;;
8857;SDS011;4465;50.904;4.696;2023-09-07T09:46:54;6.05;;;3.05;;
8857;SDS011;4465;50.904;4.696;2023-09-07T09:49:21;5.63;;;3.25;;
8857;SDS011;4465;50.904;4.696;2023-09-07T09:51:51;5.90;;;3.33;;
8857;SDS011;4465;50.904;4.696;2023-09-07T09:54:17;5.18;;;3.15;;
8857;SDS011;4465;50.904;4.696;2023-09-07T09:56:43;5.28;;;3.22;;
8857;SDS011;4465;50.904;4.696;2023-09-07T09:59:12;7.47;;;3.08;;
8857;SDS011;4465;50.904;4.696;2023-09-07T10:01:40;6.25;;;2.95;;
8857;SDS011;4465;50.904;4.696;2023-09-07T10:04:16;6.90;;;2.88;;
8857;SDS011;4465;50.904;4.696;2023-09-07T10:06:50;8.68;;;2.83;;
8857;SDS011;4465;50.904;4.696;2023-09-07T10:09:34;5.03;;;3.08;;
8857;SDS011;4465;50.904;4.696;2023-09-07T10:12:03;6.47;;;2.85;;
8857;SDS011;4465;50.904;4.696;2023-09-07T10:14:39;4.47;;;3.00;;
8857;SDS011;4465;50.904;4.696;2023-09-07T10:17:06;7.35;;;2.90;;
8857;SDS011;4465;50.904;4.696;2023-09-07T10:19:36;5.95;;;3.03;;
8857;SDS011;4465;50.904;4.696;2023-09-07T10:22:05;5.55;;;2.97;;
8857;SDS011;4465;50.904;4.696;2023-09-07T10:24:33;7.35;;;3.30;;
8857;SDS011;4465;50.904;4.696;2023-09-07T10:27:04;5.57;;;3.13;;
8857;SDS011;4465;50.904;4.696;2023-09-07T10:32:19;7.13;;;3.08;;
8857;SDS011;4465;50.904;4.696;2023-09-07T10:34:50;6.60;;;3.13;;
8857;SDS011;4465;50.904;4.696;2023-09-07T10:37:18;4.55;;;2.85;;
8857;SDS011;4465;50.904;4.696;2023-09-07T10:39:45;7.05;;;2.90;;
8857;SDS011;4465;50.904;4.696;2023-09-07T10:42:24;6.47;;;2.88;;
8857;SDS011;4465;50.904;4.696;2023-09-07T10:44:50;5.03;;;3.00;;
8857;SDS011;4465;50.904;4.696;2023-09-07T10:47:16;5.13;;;3.00;;
8857;SDS011;4465;50.904;4.696;2023-09-07T10:49:42;6.30;;;3.20;;
8857;SDS011;4465;50.904;4.696;2023-09-07T10:52:08;5.63;;;3.30;;
8857;SDS011;4465;50.904;4.696;2023-09-07T10:54:35;8.38;;;2.75;;
8857;SDS011;4465;50.904;4.696;2023-09-07T10:57:10;5.30;;;2.97;;
8857;SDS011;4465;50.904;4.696;2023-09-07T10:59:38;5.40;;;3.13;;
8857;SDS011;4465;50.904;4.696;2023-09-07T11:02:12;6.35;;;3.20;;
8857;SDS011;4465;50.904;4.696;2023-09-07T11:04:38;4.28;;;2.97;;
8857;SDS011;4465;50.904;4.696;2023-09-07T11:07:04;6.10;;;3.40;;
8857;SDS011;4465;50.904;4.696;2023-09-07T11:09:32;5.82;;;2.70;;
8857;SDS011;4465;50.904;4.696;2023-09-07T11:12:04;5.00;;;2.55;;
8857;SDS011;4465;50.904;4.696;2023-09-07T11:14:31;6.50;;;3.00;;
8857;SDS011;4465;50.904;4.696;2023-09-07T11:17:00;5.43;;;2.97;;
8857;SDS011;4465;50.904;4.696;2023-09-07T11:19:31;4.55;;;2.90;;
8857;SDS011;4465;50.904;4.696;2023-09-07T11:21:58;4.78;;;2.83;;
8857;SDS011;4465;50.904;4.696;2023-09-07T11:24:24;6.18;;;3.40;;
8857;SDS011;4465;50.904;4.696;2023-09-07T11:26:51;5.05;;;3.15;;
8857;SDS011;4465;50.904;4.696;2023-09-07T11:29:19;4.32;;;2.75;;
8857;SDS011;4465;50.904;4.696;2023-09-07T11:31:45;4.93;;;3.08;;
8857;SDS011;4465;50.904;4.696;2023-09-07T11:34:12;4.72;;;3.10;;
8857;SDS011;4465;50.904;4.696;2023-09-07T11:36:42;5.18;;;3.25;;
8857;SDS011;4465;50.904;4.696;2023-09-07T11:39:09;3.78;;;2.75;;
8857;SDS011;4465;50.904;4.696;2023-09-07T11:41:43;6.32;;;3.28;;
8857;SDS011;4465;50.904;4.696;2023-09-07T11:44:10;6.90;;;3.00;;
8857;SDS011;4465;50.904;4.696;2023-09-07T11:46:36;5.18;;;3.10;;
8857;SDS011;4465;50.904;4.696;2023-09-07T11:49:05;4.13;;;2.92;;
8857;SDS011;4465;50.904;4.696;2023-09-07T11:51:32;3.95;;;2.70;;
8857;SDS011;4465;50.904;4.696;2023-09-07T11:53:58;4.55;;;3.15;;
8857;SDS011;4465;50.904;4.696;2023-09-07T11:56:24;4.72;;;3.20;;
8857;SDS011;4465;50.904;4.696;2023-09-07T11:58:50;5.88;;;3.30;;
8857;SDS011;4465;50.904;4.696;2023-09-07T12:01:16;4.93;;;3.30;;
8857;SDS011;4465;50.904;4.696;2023-09-07T12:03:42;5.53;;;3.33;;
8857;SDS011;4465;50.904;4.696;2023-09-07T12:06:11;4.28;;;3.00;;
8857;SDS011;4465;50.904;4.696;2023-09-07T12:08:37;5.80;;;3.55;;
8857;SDS011;4465;50.904;4.696;2023-09-07T12:11:05;4.88;;;3.30;;
8857;SDS011;4465;50.904;4.696;2023-09-07T12:13:31;4.63;;;3.25;;
8857;SDS011;4465;50.904;4.696;2023-09-07T12:15:59;5.07;;;3.10;;
8857;SDS011;4465;50.904;4.696;2023-09-07T12:18:27;4.35;;;3.40;;
8857;SDS011;4465;50.904;4.696;2023-09-07T12:20:55;4.88;;;3.22;;
8857;SDS011;4465;50.904;4.696;2023-09-07T12:23:21;6.68;;;3.42;;
8857;SDS011;4465;50.904;4.696;2023-09-07T12:25:49;7.85;;;3.63;;
8857;SDS011;4465;50.904;4.696;2023-09-07T12:28:16;4.50;;;3.20;;
8857;SDS011;4465;50.904;4.696;2023-09-07T12:30:42;7.55;;;3.60;;
8857;SDS011;4465;50.904;4.696;2023-09-07T12:33:09;8.80;;;3.45;;
8857;SDS011;4465;50.904;4.696;2023-09-07T12:35:35;5.57;;;3.83;;
8857;SDS011;4465;50.904;4.696;2023-09-07T12:38:01;4.88;;;3.38;;
8857;SDS011;4465;50.904;4.696;2023-09-07T12:40:28;8.77;;;3.40;;
8857;SDS011;4465;50.904;4.696;2023-09-07T12:42:54;6.65;;;3.45;;
8857;SDS011;4465;50.904;4.696;2023-09-07T12:45:20;5.80;;;3.30;;
8857;SDS011;4465;50.904;4.696;2023-09-07T12:47:50;5.75;;;3.70;;
8857;SDS011;4465;50.904;4.696;2023-09-07T12:50:16;7.40;;;3.72;;
8857;SDS011;4465;50.904;4.696;2023-09-07T12:52:42;8.10;;;4.15;;
8857;SDS011;4465;50.904;4.696;2023-09-07T12:55:08;7.90;;;3.70;;
8857;SDS011;4465;50.904;4.696;2023-09-07T12:57:34;6.63;;;3.40;;
8857;SDS011;4465;50.904;4.696;2023-09-07T13:00:01;5.38;;;3.42;;
8857;SDS011;4465;50.904;4.696;2023-09-07T13:02:31;6.53;;;3.78;;
8857;SDS011;4465;50.904;4.696;2023-09-07T13:05:02;5.22;;;3.40;;
8857;SDS011;4465;50.904;4.696;2023-09-07T13:07:33;4.63;;;3.30;;
8857;SDS011;4465;50.904;4.696;2023-09-07T13:10:02;5.55;;;3.28;;
8857;SDS011;4465;50.904;4.696;2023-09-07T13:12:29;4.32;;;2.90;;
8857;SDS011;4465;50.904;4.696;2023-09-07T13:15:00;4.35;;;2.97;;
8857;SDS011;4465;50.904;4.696;2023-09-07T13:17:26;5.68;;;3.33;;
8857;SDS011;4465;50.904;4.696;2023-09-07T13:19:52;5.13;;;3.15;;
8857;SDS011;4465;50.904;4.696;2023-09-07T13:22:18;4.63;;;2.85;;
8857;SDS011;4465;50.904;4.696;2023-09-07T13:24:44;5.85;;;3.00;;
8857;SDS011;4465;50.904;4.696;2023-09-07T13:27:09;4.47;;;3.17;;
8857;SDS011;4465;50.904;4.696;2023-09-07T13:29:38;5.30;;;2.97;;
8857;SDS011;4465;50.904;4.696;2023-09-07T13:32:04;6.88;;;3.47;;
8857;SDS011;4465;50.904;4.696;2023-09-07T13:34:30;4.32;;;3.13;;
8857;SDS011;4465;50.904;4.696;2023-09-07T13:36:55;5.70;;;3.08;;
8857;SDS011;4465;50.904;4.696;2023-09-07T13:39:22;3.70;;;3.00;;
8857;SDS011;4465;50.904;4.696;2023-09-07T13:41:48;6.10;;;3.50;;
8857;SDS011;4465;50.904;4.696;2023-09-07T13:44:17;4.13;;;2.97;;
8857;SDS011;4465;50.904;4.696;2023-09-07T13:46:45;4.97;;;3.15;;
8857;SDS011;4465;50.904;4.696;2023-09-07T13:49:14;7.20;;;3.42;;
8857;SDS011;4465;50.904;4.696;2023-09-07T13:51:40;4.22;;;3.10;;
8857;SDS011;4465;50.904;4.696;2023-09-07T13:54:07;6.07;;;3.60;;
8857;SDS011;4465;50.904;4.696;2023-09-07T13:56:34;5.05;;;3.17;;
8857;SDS011;4465;50.904;4.696;2023-09-07T13:59:01;6.20;;;3.47;;
8857;SDS011;4465;50.904;4.696;2023-09-07T14:01:27;10.23;;;3.63;;
8857;SDS011;4465;50.904;4.696;2023-09-07T14:03:53;7.88;;;3.88;;
8857;SDS011;4465;50.904;4.696;2023-09-07T14:06:20;4.70;;;3.30;;
8857;SDS011;4465;50.904;4.696;2023-09-07T14:08:48;5.65;;;3.30;;
8857;SDS011;4465;50.904;4.696;2023-09-07T14:11:19;5.60;;;3.30;;
8857;SDS011;4465;50.904;4.696;2023-09-07T14:13:47;5.68;;;3.42;;
8857;SDS011;4465;50.904;4.696;2023-09-07T14:16:16;4.70;;;3.40;;
8857;SDS011;4465;50.904;4.696;2023-09-07T14:18:48;5.00;;;3.40;;
8857;SDS011;4465;50.904;4.696;2023-09-07T14:21:17;5.03;;;3.05;;
8857;SDS011;4465;50.904;4.696;2023-09-07T14:23:43;5.55;;;3.22;;
8857;SDS011;4465;50.904;4.696;2023-09-07T14:26:09;7.10;;;3.67;;
8857;SDS011;4465;50.904;4.696;2023-09-07T14:28:35;6.63;;;3.60;;
8857;SDS011;4465;50.904;4.696;2023-09-07T14:31:06;5.75;;;3.55;;
8857;SDS011;4465;50.904;4.696;2023-09-07T14:33:33;6.15;;;3.00;;
8857;SDS011;4465;50.904;4.696;2023-09-07T14:35:59;4.65;;;3.42;;
8857;SDS011;4465;50.904;4.696;2023-09-07T14:38:25;5.65;;;3.42;;
8857;SDS011;4465;50.904;4.696;2023-09-07T14:40:52;5.78;;;3.42;;
8857;SDS011;4465;50.904;4.696;2023-09-07T14:43:22;5.10;;;3.40;;
8857;SDS011;4465;50.904;4.696;2023-09-07T14:45:48;7.17;;;3.27;;
8857;SDS011;4465;50.904;4.696;2023-09-07T14:48:14;4.88;;;3.38;;
8857;SDS011;4465;50.904;4.696;2023-09-07T14:50:42;5.55;;;3.42;;
8857;SDS011;4465;50.904;4.696;2023-09-07T14:53:13;5.28;;;3.25;;
8857;SDS011;4465;50.904;4.696;2023-09-07T14:55:39;9.20;;;3.47;;
8857;SDS011;4465;50.904;4.696;2023-09-07T14:58:05;6.45;;;3.30;;
8857;SDS011;4465;50.904;4.696;2023-09-07T15:00:36;5.00;;;3.20;;
8857;SDS011;4465;50.904;4.696;2023-09-07T15:03:02;5.38;;;3.08;;
8857;SDS011;4465;50.904;4.696;2023-09-07T15:05:29;6.43;;;3.58;;
8857;SDS011;4465;50.904;4.696;2023-09-07T15:07:55;6.38;;;3.55;;
8857;SDS011;4465;50.904;4.696;2023-09-07T15:10:22;4.63;;;3.25;;
8857;SDS011;4465;50.904;4.696;2023-09-07T15:12:51;4.95;;;3.40;;
8857;SDS011;4465;50.904;4.696;2023-09-07T15:15:17;5.75;;;3.08;;
8857;SDS011;4465;50.904;4.696;2023-09-07T15:17:45;4.10;;;3.00;;
8857;SDS011;4465;50.904;4.696;2023-09-07T15:20:12;8.43;;;3.60;;
8857;SDS011;4465;50.904;4.696;2023-09-07T15:22:38;4.80;;;3.30;;
8857;SDS011;4465;50.904;4.696;2023-09-07T15:25:04;7.18;;;3.17;;